Time;durP1;ratioP1;P1;durP2;ratioP2;P2;SDS_P1;SDS_P2;PMS_P1;PMS_P2;Temp;Humidity;BMP_temperature;BMP_pressure;BME280_temperature;BME280_humidity;BME280_pressure;Samples;Min_cycle;Max_cycle;Signal;HPM_P1;HPM_P2
2024/04/22 00:02:20;;;;;;;;;;;;;;;;;;5504597;26;19927;-57
2024/04/22 00:04:46;;;;;;;;;;;;;;;;;;5495792;25;19943;-56
2024/04/22 00:07:12;;;;;;;;;;;;;;;;;;5515202;25;19934;-57
2024/04/22 00:09:38;;;;;;;;;;;;;;;;;;5504925;26;19928;-57
2024/04/22 00:12:04;;;;;;;;;;;;;;;;;;5506215;25;19935;-57
2024/04/22 00:14:30;;;;;;;;;;;;;;;;;;5501534;26;20386;-57
2024/04/22 00:16:57;;;;;;;;;;;;;;;;;;5493917;25;19939;-56
2024/04/22 00:19:23;;;;;;;;;;;;;;;;;;5510701;26;20279;-57
2024/04/22 00:21:49;;;;;;;;;;;;;;;;;;5502661;26;20004;-57
2024/04/22 00:24:15;;;;;;;;;;;;;;;;;;5510374;26;19927;-55
2024/04/22 00:26:40;;;;;;;;;;;;;;;;;;5513406;25;19927;-57
2024/04/22 00:29:06;;;;;;;;;;;;;;;;;;5505088;25;19928;-57
2024/04/22 00:31:32;;;;;;;;;;;;;;;;;;5507464;26;20391;-58
2024/04/22 00:33:58;;;;;;;;;;;;;;;;;;5503010;26;19936;-57
2024/04/22 00:36:24;;;;;;;;;;;;;;;;;;5504221;25;19928;-57
2024/04/22 00:38:50;;;;;;;;;;;;;;;;;;5510712;26;19931;-56
2024/04/22 00:41:16;;;;;;;;;;;;;;;;;;5512161;25;19928;-58
2024/04/22 00:43:42;;;;;;;;;;;;;;;;;;5510619;26;19928;-56
2024/04/22 00:46:08;;;;;;;;;;;;;;;;;;5507927;25;19941;-56
2024/04/22 00:48:34;;;;;;;;;;;;;;;;;;5515832;26;19936;-56
2024/04/22 00:51:00;;;;;;;;;;;;;;;;;;5511310;25;19927;-57
2024/04/22 00:53:26;;;;;;;;;;;;;;;;;;5495340;25;19936;-57
2024/04/22 00:55:52;;;;;;;;;;;;;;;;;;5511407;25;19928;-56
2024/04/22 00:58:18;;;;;;;;;;;;;;;;;;5514106;26;20644;-56
2024/04/22 01:00:44;;;;;;;;;;;;;;;;;;5511681;25;20359;-58
2024/04/22 01:03:10;;;;;;;;;;;;;;;;;;5511868;26;19927;-58
2024/04/22 01:05:36;;;;;;;;;;;;;;;;;;5513983;26;19927;-56
2024/04/22 01:08:02;;;;;;;;;;;;;;;;;;5500566;26;19935;-56
2024/04/22 01:10:28;;;;;;;;;;;;;;;;;;5514546;25;19928;-56
2024/04/22 01:12:54;;;;;;;;;;;;;;;;;;5507228;26;20287;-56
2024/04/22 01:15:19;;;;;;;;;;;;;;;;;;5498631;25;20762;-56
2024/04/22 01:17:45;;;;;;;;;;;;;;;;;;5504097;26;20001;-56
2024/04/22 01:20:11;;;;;;;;;;;;;;;;;;5512248;25;19967;-56
2024/04/22 01:22:37;;;;;;;;;;;;;;;;;;5503378;26;19934;-56
2024/04/22 01:25:03;;;;;;;;;;;;;;;;;;5508511;25;19938;-56
2024/04/22 01:27:29;;;;;;;;;;;;;;;;;;5504575;26;19942;-56
2024/04/22 01:29:55;;;;;;;;;;;;;;;;;;5512359;25;19934;-57
2024/04/22 01:32:21;;;;;;;;;;;;;;;;;;5505464;26;19934;-56
2024/04/22 01:34:47;;;;;;;;;;;;;;;;;;5498136;26;19935;-56
2024/04/22 01:37:13;;;;;;;;;;;;;;;;;;5498026;26;19942;-55
2024/04/22 01:39:39;;;;;;;;;;;;;;;;;;5507473;25;19936;-57
2024/04/22 01:42:05;;;;;;;;;;;;;;;;;;5502540;26;19996;-56
2024/04/22 01:44:31;;;;;;;;;;;;;;;;;;5505124;26;19928;-56
2024/04/22 01:46:56;;;;;;;;;;;;;;;;;;5504652;25;20604;-56
2024/04/22 01:49:23;;;;;;;;;;;;;;;;;;5503352;26;20238;-56
2024/04/22 01:51:49;;;;;;;;;;;;;;;;;;5506753;25;19936;-55
2024/04/22 01:54:15;;;;;;;;;;;;;;;;;;5519626;26;19927;-56
2024/04/22 01:56:41;;;;;;;;;;;;;;;;;;5513363;25;19928;-59
2024/04/22 01:59:07;;;;;;;;;;;;;;;;;;5502936;26;20374;-56
2024/04/22 02:01:33;;;;;;;;;;;;;;;;;;5510868;25;19981;-58
2024/04/22 02:03:58;;;;;;;;;;;;;;;;;;5501816;26;19928;-55
2024/04/22 02:06:24;;;;;;;;;;;;;;;;;;5516188;25;19944;-56
2024/04/22 02:08:50;;;;;;;;;;;;;;;;;;5505254;26;19928;-56
2024/04/22 02:11:16;;;;;;;;;;;;;;;;;;5517904;25;19946;-56
2024/04/22 02:13:42;;;;;;;;;;;;;;;;;;5499857;26;20001;-58
2024/04/22 02:16:08;;;;;;;;;;;;;;;;;;5502630;25;19935;-58
2024/04/22 02:18:34;;;;;;;;;;;;;;;;;;5500342;26;19928;-56
2024/04/22 02:21:00;;;;;;;;;;;;;;;;;;5506988;25;19938;-56
2024/04/22 02:23:26;;;;;;;;;;;;;;;;;;5501714;26;19934;-57
2024/04/22 02:25:52;;;;;;;;;;;;;;;;;;5509585;25;20303;-56
2024/04/22 02:28:18;;;;;;;;;;;;;;;;;;5499792;26;19999;-57
2024/04/22 02:30:44;;;;;;;;;;;;;;;;;;5497915;25;19935;-57
2024/04/22 02:33:10;;;;;;;;;;;;;;;;;;5497771;26;19927;-56
2024/04/22 02:35:36;;;;;;;;;;;;;;;;;;5504255;25;20374;-56
2024/04/22 02:38:01;;;;;;;;;;;;;;;;;;5495766;26;19927;-57
2024/04/22 02:40:27;;;;;;;;;;;;;;;;;;5508517;25;19928;-56
2024/04/22 02:42:53;;;;;;;;;;;;;;;;;;5506392;26;19938;-57
2024/04/22 02:45:19;;;;;;;;;;;;;;;;;;5511011;25;19927;-56
2024/04/22 02:47:45;;;;;;;;;;;;;;;;;;5498750;26;20520;-57
2024/04/22 02:50:11;;;;;;;;;;;;;;;;;;5499695;25;20734;-56
2024/04/22 02:52:37;;;;;;;;;;;;;;;;;;5509608;26;19931;-56
2024/04/22 02:55:03;;;;;;;;;;;;;;;;;;5515643;26;19947;-58
2024/04/22 02:57:29;;;;;;;;;;;;;;;;;;5495064;25;19936;-56
2024/04/22 02:59:55;;;;;;;;;;;;;;;;;;5504378;25;20589;-56
2024/04/22 03:02:21;;;;;;;;;;;;;;;;;;5495789;25;19935;-55
2024/04/22 03:04:47;;;;;;;;;;;;;;;;;;5500835;25;20374;-57
2024/04/22 03:07:13;;;;;;;;;;;;;;;;;;5503075;25;19932;-56
2024/04/22 03:09:42;;;;;;;;;;;;;;;;;;5512692;26;19932;-55
2024/04/22 03:12:08;;;;;;;;;;;;;;;;;;5499628;26;19931;-56
2024/04/22 03:14:34;;;;;;;;;;;;;;;;;;5503965;26;19995;-56
2024/04/22 03:17:00;;;;;;;;;;;;;;;;;;5499542;25;19939;-57
2024/04/22 03:19:26;;;;;;;;;;;;;;;;;;5503852;26;19942;-56
2024/04/22 03:21:52;;;;;;;;;;;;;;;;;;5514448;25;19995;-56
2024/04/22 03:24:18;;;;;;;;;;;;;;;;;;5500026;26;20047;-56
2024/04/22 03:26:44;;;;;;;;;;;;;;;;;;5507092;25;19928;-56
2024/04/22 03:29:10;;;;;;;;;;;;;;;;;;5504860;26;19927;-55
2024/04/22 03:31:36;;;;;;;;;;;;;;;;;;5511127;25;19943;-56
2024/04/22 03:34:01;;;;;;;;;;;;;;;;;;5494147;26;20021;-59
2024/04/22 03:36:27;;;;;;;;;;;;;;;;;;5514370;25;19928;-60
2024/04/22 03:38:53;;;;;;;;;;;;;;;;;;5506572;26;20369;-59
2024/04/22 03:41:19;;;;;;;;;;;;;;;;;;5522854;25;20267;-59
2024/04/22 03:43:45;;;;;;;;;;;;;;;;;;5507333;26;19943;-59
2024/04/22 03:51:41;;;;;;;;;;;;;;;;;;5507665;25;19930;-60
2024/04/22 03:54:07;;;;;;;;;;;;;;;;;;5492813;26;20267;-56
2024/04/22 03:56:33;;;;;;;;;;;;;;;;;;5509654;25;20356;-56
2024/04/22 03:58:59;;;;;;;;;;;;;;;;;;5504644;26;19935;-56
2024/04/22 04:01:25;;;;;;;;;;;;;;;;;;5504266;25;20710;-56
2024/04/22 04:03:50;;;;;;;;;;;;;;;;;;5497575;26;19928;-55
2024/04/22 04:06:16;;;;;;;;;;;;;;;;;;5509265;25;20454;-56
2024/04/22 04:08:42;;;;;;;;;;;;;;;;;;5506243;26;20700;-57
2024/04/22 04:11:12;;;;;;;;;;;;;;;;;;5506039;25;19938;-56
2024/04/22 04:13:38;;;;;;;;;;;;;;;;;;5494582;26;20004;-56
2024/04/22 04:16:04;;;;;;;;;;;;;;;;;;5515305;25;19935;-56
2024/04/22 04:18:30;;;;;;;;;;;;;;;;;;5507297;26;19961;-56
2024/04/22 04:20:56;;;;;;;;;;;;;;;;;;5507978;25;19935;-56
2024/04/22 04:23:22;;;;;;;;;;;;;;;;;;5506363;26;19936;-56
2024/04/22 04:25:48;;;;;;;;;;;;;;;;;;5496628;25;19942;-56
2024/04/22 04:28:14;;;;;;;;;;;;;;;;;;5498385;26;19935;-56
2024/04/22 04:30:39;;;;;;;;;;;;;;;;;;5510598;25;19927;-57
2024/04/22 04:33:06;;;;;;;;;;;;;;;;;;5497776;26;19934;-56
2024/04/22 04:35:32;;;;;;;;;;;;;;;;;;5504820;25;20356;-56
2024/04/22 04:37:58;;;;;;;;;;;;;;;;;;5507952;26;19935;-56
2024/04/22 04:40:23;;;;;;;;;;;;;;;;;;5506868;25;19995;-55
2024/04/22 04:42:49;;;;;;;;;;;;;;;;;;5505544;26;19928;-56
2024/04/22 04:45:15;;;;;;;;;;;;;;;;;;5516866;25;20446;-60
2024/04/22 04:47:41;;;;;;;;;;;;;;;;;;5508364;26;19927;-59
2024/04/22 04:50:07;;;;;;;;;;;;;;;;;;5512718;25;20363;-59
2024/04/22 04:52:33;;;;;;;;;;;;;;;;;;5506536;25;20280;-59
2024/04/22 04:54:59;;;;;;;;;;;;;;;;;;5504425;25;20348;-59
2024/04/22 04:57:25;;;;;;;;;;;;;;;;;;5500458;26;19964;-59
2024/04/22 04:59:51;;;;;;;;;;;;;;;;;;5506632;25;20478;-60
2024/04/22 05:02:17;;;;;;;;;;;;;;;;;;5505674;25;19928;-59
2024/04/22 05:04:43;;;;;;;;;;;;;;;;;;5501994;25;19935;-57
2024/04/22 05:07:09;;;;;;;;;;;;;;;;;;5508927;25;19935;-57
2024/04/22 05:09:35;;;;;;;;;;;;;;;;;;5515055;26;19935;-56
2024/04/22 05:12:01;;;;;;;;;;;;;;;;;;5495082;25;19927;-55
2024/04/22 05:14:27;;;;;;;;;;;;;;;;;;5498981;26;19934;-56
2024/04/22 05:16:53;;;;;;;;;;;;;;;;;;5507751;25;19942;-55
2024/04/22 05:19:19;;;;;;;;;;;;;;;;;;5502279;25;19946;-55
2024/04/22 05:21:45;;;;;;;;;;;;;;;;;;5511726;25;19927;-55
2024/04/22 05:24:11;;;;;;;;;;;;;;;;;;5506875;26;19935;-55
2024/04/22 05:26:37;;;;;;;;;;;;;;;;;;5497098;25;19928;-56
2024/04/22 05:29:03;;;;;;;;;;;;;;;;;;5501229;26;19934;-55
2024/04/22 05:31:29;;;;;;;;;;;;;;;;;;5493335;25;20371;-56
2024/04/22 05:36:39;;;;;;;;;;;;;;;;;;5519740;25;19930;-55
2024/04/22 05:39:05;;;;;;;;;;;;;;;;;;5515918;26;19928;-55
2024/04/22 05:41:31;;;;;;;;;;;;;;;;;;5549633;25;19931;-58
2024/04/22 05:43:57;;;;;;;;;;;;;;;;;;5561008;25;19995;-58
2024/04/22 05:46:23;;;;;;;;;;;;;;;;;;5541388;25;19928;-58
2024/04/22 05:48:49;;;;;;;;;;;;;;;;;;5520663;26;19943;-58
2024/04/22 05:51:15;;;;;;;;;;;;;;;;;;5533368;25;19927;-58
2024/04/22 05:53:41;;;;;;;;;;;;;;;;;;5505889;25;19927;-59
2024/04/22 05:56:07;;;;;;;;;;;;;;;;;;5542858;25;19927;-60
2024/04/22 05:58:33;;;;;;;;;;;;;;;;;;5549952;25;19934;-60
2024/04/22 06:00:59;;;;;;;;;;;;;;;;;;5501741;25;19935;-60
2024/04/22 06:03:25;;;;;;;;;;;;;;;;;;5486864;26;19940;-60
2024/04/22 06:05:51;;;;;;;;;;;;;;;;;;5530194;25;19934;-59
2024/04/22 06:08:17;;;;;;;;;;;;;;;;;;5536748;25;20012;-59
2024/04/22 06:10:43;;;;;;;;;;;;;;;;;;5500268;25;19948;-59
2024/04/22 06:13:10;;;;;;;;;;;;;;;;;;5495854;26;19935;-56
2024/04/22 06:15:36;;;;;;;;;;;;;;;;;;5518689;25;19937;-55
2024/04/22 06:18:02;;;;;;;;;;;;;;;;;;5560812;25;19927;-56
2024/04/22 06:20:28;;;;;;;;;;;;;;;;;;5543496;25;19934;-55
2024/04/22 06:22:54;;;;;;;;;;;;;;;;;;5514789;25;19927;-56
2024/04/22 06:25:20;;;;;;;;;;;;;;;;;;5516433;25;19938;-55
2024/04/22 06:27:48;;;;;;;;;;;;;;;;;;5493096;25;19939;-55
2024/04/22 06:30:13;;;;;;;;;;;;;;;;;;5521023;25;19931;-55
2024/04/22 06:32:39;;;;;;;;;;;;;;;;;;5560276;25;19990;-55
2024/04/22 06:35:05;;;;;;;;;;;;;;;;;;5535879;25;19932;-55
2024/04/22 06:37:31;;;;;;;;;;;;;;;;;;5522058;26;20412;-55
2024/04/22 06:39:57;;;;;;;;;;;;;;;;;;5528632;25;19938;-55
2024/04/22 06:42:23;;;;;;;;;;;;;;;;;;5558815;25;20359;-55
2024/04/22 06:44:50;;;;;;;;;;;;;;;;;;5540601;25;19927;-55
2024/04/22 06:47:15;;;;;;;;;;;;;;;;;;5524713;25;20323;-55
2024/04/22 06:49:41;;;;;;;;;;;;;;;;;;5520380;26;19935;-55
2024/04/22 06:52:07;;;;;;;;;;;;;;;;;;5521160;25;20484;-55
2024/04/22 06:54:33;;;;;;;;;;;;;;;;;;5506928;25;19935;-55
2024/04/22 06:56:59;;;;;;;;;;;;;;;;;;5486812;26;19935;-54
2024/04/22 06:59:25;;;;;;;;;;;;;;;;;;5492286;26;19935;-55
2024/04/22 07:01:51;;;;;;;;;;;;;;;;;;5516069;26;19935;-55
2024/04/22 07:04:17;;;;;;;;;;;;;;;;;;5509166;26;19938;-59
2024/04/22 07:06:43;;;;;;;;;;;;;;;;;;5523641;25;19927;-59
2024/04/22 07:09:09;;;;;;;;;;;;;;;;;;5513963;26;19927;-54
2024/04/22 07:11:35;;;;;;;;;;;;;;;;;;5533965;25;19956;-56
2024/04/22 07:14:01;;;;;;;;;;;;;;;;;;5496060;26;19935;-55
2024/04/22 07:16:29;;;;;;;;;;;;;;;;;;5489559;25;20264;-55
2024/04/22 07:18:55;;;;;;;;;;;;;;;;;;5460443;26;19971;-55
2024/04/22 07:21:21;;;;;;;;;;;;;;;;;;5513124;26;19946;-55
2024/04/22 07:23:47;;;;;;;;;;;;;;;;;;5487376;26;20370;-60
2024/04/22 07:26:13;;;;;;;;;;;;;;;;;;5530062;25;20223;-60
2024/04/22 07:28:39;;;;;;;;;;;;;;;;;;5525430;25;20322;-59
2024/04/22 07:31:05;;;;;;;;;;;;;;;;;;5525373;25;19932;-60
2024/04/22 07:33:31;;;;;;;;;;;;;;;;;;5522445;26;19928;-60
2024/04/22 07:35:56;;;;;;;;;;;;;;;;;;5524976;25;19946;-59
2024/04/22 07:38:24;;;;;;;;;;;;;;;;;;5525364;26;19935;-59
2024/04/22 07:40:50;;;;;;;;;;;;;;;;;;5525006;25;20280;-54
2024/04/22 07:43:16;;;;;;;;;;;;;;;;;;5501303;26;19995;-56
2024/04/22 07:45:42;;;;;;;;;;;;;;;;;;5532679;25;19927;-54
2024/04/22 07:48:09;;;;;;;;;;;;;;;;;;5562440;25;19927;-55
2024/04/22 07:50:35;;;;;;;;;;;;;;;;;;5511527;25;19927;-57
2024/04/22 07:53:01;;;;;;;;;;;;;;;;;;5500598;26;19935;-56
2024/04/22 07:55:27;;;;;;;;;;;;;;;;;;5510076;25;20047;-59
2024/04/22 07:57:53;;;;;;;;;;;;;;;;;;5500756;26;20244;-59
2024/04/22 08:00:19;;;;;;;;;;;;;;;;;;5508742;25;19932;-60
2024/04/22 08:02:45;;;;;;;;;;;;;;;;;;5505953;26;19935;-60
2024/04/22 08:05:11;;;;;;;;;;;;;;;;;;5503675;26;19927;-60
2024/04/22 08:07:36;;;;;;;;;;;;;;;;;;5475733;26;19939;-60
2024/04/22 08:10:03;;;;;;;;;;;;;;;;;;5513818;25;20387;-58
2024/04/22 08:12:29;;;;;;;;;;;;;;;;;;5503040;26;19928;-59
2024/04/22 08:14:55;;;;;;;;;;;;;;;;;;5510811;26;19927;-58
2024/04/22 08:17:21;;;;;;;;;;;;;;;;;;5506984;26;20259;-59
2024/04/22 08:19:47;;;;;;;;;;;;;;;;;;5504448;25;19943;-59
2024/04/22 08:22:13;;;;;;;;;;;;;;;;;;5496149;26;19928;-59
2024/04/22 08:24:39;;;;;;;;;;;;;;;;;;5495399;26;19939;-58
2024/04/22 08:27:07;;;;;;;;;;;;;;;;;;5502242;25;20295;-59
2024/04/22 08:29:33;;;;;;;;;;;;;;;;;;5504134;26;19928;-59
2024/04/22 08:31:58;;;;;;;;;;;;;;;;;;5506307;25;20374;-58
2024/04/22 08:34:24;;;;;;;;;;;;;;;;;;5504020;25;20292;-59
2024/04/22 08:36:50;;;;;;;;;;;;;;;;;;5497951;26;20376;-59
2024/04/22 08:39:16;;;;;;;;;;;;;;;;;;5501571;25;20305;-58
2024/04/22 08:41:42;;;;;;;;;;;;;;;;;;5506586;25;19935;-58
2024/04/22 08:44:08;;;;;;;;;;;;;;;;;;5501294;26;19927;-59
2024/04/22 08:46:34;;;;;;;;;;;;;;;;;;5508376;25;20624;-59
2024/04/22 08:49:00;;;;;;;;;;;;;;;;;;5498480;25;20271;-58
2024/04/22 08:51:26;;;;;;;;;;;;;;;;;;5499694;26;19928;-58
2024/04/22 08:53:52;;;;;;;;;;;;;;;;;;5495704;26;19943;-59
2024/04/22 08:56:18;;;;;;;;;;;;;;;;;;5507659;25;20324;-58
2024/04/22 08:58:44;;;;;;;;;;;;;;;;;;5507632;25;19927;-58
2024/04/22 09:01:10;;;;;;;;;;;;;;;;;;5503763;25;19927;-58
2024/04/22 09:03:36;;;;;;;;;;;;;;;;;;5497479;26;19935;-58
2024/04/22 09:06:02;;;;;;;;;;;;;;;;;;5508358;26;19977;-59
2024/04/22 09:08:28;;;;;;;;;;;;;;;;;;5505237;25;19944;-59
2024/04/22 09:10:54;;;;;;;;;;;;;;;;;;5497883;26;19995;-58
2024/04/22 09:13:20;;;;;;;;;;;;;;;;;;5504305;26;19940;-59
2024/04/22 09:15:46;;;;;;;;;;;;;;;;;;5504841;25;20628;-59
2024/04/22 09:18:12;;;;;;;;;;;;;;;;;;5500703;25;20374;-59
2024/04/22 09:20:38;;;;;;;;;;;;;;;;;;5493711;25;20287;-59
2024/04/22 09:23:05;;;;;;;;;;;;;;;;;;5499005;26;19928;-59
2024/04/22 09:25:31;;;;;;;;;;;;;;;;;;5504143;25;19928;-59
2024/04/22 09:27:57;;;;;;;;;;;;;;;;;;5509642;25;19935;-58
2024/04/22 09:30:23;;;;;;;;;;;;;;;;;;5504425;25;20320;-58
2024/04/22 09:32:49;;;;;;;;;;;;;;;;;;5494826;26;19961;-59
2024/04/22 09:35:15;;;;;;;;;;;;;;;;;;5503483;25;19927;-59
2024/04/22 09:37:41;;;;;;;;;;;;;;;;;;5505142;25;19940;-59
2024/04/22 09:40:07;;;;;;;;;;;;;;;;;;5496480;26;19927;-58
2024/04/22 09:42:33;;;;;;;;;;;;;;;;;;5498846;25;19931;-58
2024/04/22 09:44:59;;;;;;;;;;;;;;;;;;5503200;25;20609;-56
2024/04/22 09:47:25;;;;;;;;;;;;;;;;;;5505697;26;20364;-56
2024/04/22 09:49:51;;;;;;;;;;;;;;;;;;5504549;25;20382;-57
2024/04/22 09:52:17;;;;;;;;;;;;;;;;;;5499868;26;19940;-56
2024/04/22 09:54:43;;;;;;;;;;;;;;;;;;5504864;25;19934;-56
2024/04/22 09:57:09;;;;;;;;;;;;;;;;;;5506190;25;19938;-56
2024/04/22 09:59:34;;;;;;;;;;;;;;;;;;5496123;25;19946;-56
2024/04/22 10:02:00;;;;;;;;;;;;;;;;;;5503117;25;20032;-56
2024/04/22 10:04:26;;;;;;;;;;;;;;;;;;5498099;25;19940;-56
2024/04/22 10:06:52;;;;;;;;;;;;;;;;;;5496965;25;19947;-56
2024/04/22 10:09:18;;;;;;;;;;;;;;;;;;5500350;26;19928;-55
2024/04/22 10:11:44;;;;;;;;;;;;;;;;;;5512560;25;19927;-56
2024/04/22 10:14:10;;;;;;;;;;;;;;;;;;5510034;25;20062;-56
2024/04/22 10:16:36;;;;;;;;;;;;;;;;;;5505871;25;19992;-56
2024/04/22 10:19:02;;;;;;;;;;;;;;;;;;5494782;25;19939;-56
2024/04/22 10:21:28;;;;;;;;;;;;;;;;;;5495641;26;19968;-61
2024/04/22 10:23:54;;;;;;;;;;;;;;;;;;5507355;26;20255;-62
2024/04/22 10:26:20;;;;;;;;;;;;;;;;;;5505739;25;19947;-62
2024/04/22 10:28:46;;;;;;;;;;;;;;;;;;5493753;25;19928;-62
2024/04/22 10:31:12;;;;;;;;;;;;;;;;;;5507807;25;20000;-60
2024/04/22 10:33:38;;;;;;;;;;;;;;;;;;5508533;26;19942;-57
2024/04/22 10:36:04;;;;;;;;;;;;;;;;;;5515738;25;19999;-61
2024/04/22 10:38:30;;;;;;;;;;;;;;;;;;5507417;25;19996;-60
2024/04/22 10:40:56;;;;;;;;;;;;;;;;;;5503259;25;19935;-61
2024/04/22 10:43:22;;;;;;;;;;;;;;;;;;5514740;26;20474;-60
2024/04/22 10:45:48;;;;;;;;;;;;;;;;;;5512962;25;19936;-59
2024/04/22 10:48:14;;;;;;;;;;;;;;;;;;5513729;26;19927;-60
2024/04/22 10:50:43;;;;;;;;;;;;;;;;;;5508552;25;19928;-61
2024/04/22 10:53:09;;;;;;;;;;;;;;;;;;5504691;26;19935;-61
2024/04/22 10:55:35;;;;;;;;;;;;;;;;;;5509547;25;19935;-57
2024/04/22 10:58:01;;;;;;;;;;;;;;;;;;5499886;25;19928;-58
2024/04/22 11:00:27;;;;;;;;;;;;;;;;;;5505458;26;19935;-59
2024/04/22 11:02:53;;;;;;;;;;;;;;;;;;5502950;25;20741;-56
2024/04/22 11:05:19;;;;;;;;;;;;;;;;;;5500849;25;19964;-56
2024/04/22 11:07:45;;;;;;;;;;;;;;;;;;5497406;26;20371;-56
2024/04/22 11:10:11;;;;;;;;;;;;;;;;;;5501677;25;19943;-57
2024/04/22 11:12:37;;;;;;;;;;;;;;;;;;5497452;26;19932;-56
2024/04/22 11:15:02;;;;;;;;;;;;;;;;;;5520353;25;20275;-57
2024/04/22 11:17:28;;;;;;;;;;;;;;;;;;5500640;26;19936;-56
2024/04/22 11:19:54;;;;;;;;;;;;;;;;;;5495689;25;19935;-58
2024/04/22 11:22:20;;;;;;;;;;;;;;;;;;5493747;26;19934;-57
2024/04/22 11:24:46;;;;;;;;;;;;;;;;;;5497178;25;19943;-56
2024/04/22 11:27:12;;;;;;;;;;;;;;;;;;5497754;25;19928;-56
2024/04/22 11:29:38;;;;;;;;;;;;;;;;;;5491321;26;19928;-57
2024/04/22 11:32:04;;;;;;;;;;;;;;;;;;5469693;26;19932;-57
2024/04/22 11:34:30;;;;;;;;;;;;;;;;;;5495110;26;19928;-58
2024/04/22 11:36:56;;;;;;;;;;;;;;;;;;5500391;25;19995;-58
2024/04/22 11:39:22;;;;;;;;;;;;;;;;;;5498547;25;19935;-59
2024/04/22 11:41:48;;;;;;;;;;;;;;;;;;5493395;25;19936;-59
2024/04/22 11:44:14;;;;;;;;;;;;;;;;;;5498252;26;19935;-58
2024/04/22 11:46:40;;;;;;;;;;;;;;;;;;5509588;25;20352;-57
2024/04/22 11:49:06;;;;;;;;;;;;;;;;;;5495192;26;20452;-58
2024/04/22 11:51:32;;;;;;;;;;;;;;;;;;5499243;25;19936;-59
2024/04/22 11:53:57;;;;;;;;;;;;;;;;;;5492113;26;19996;-58
2024/04/22 11:56:29;;;;;;;;;;;;;;;;;;5493392;25;19928;-57
2024/04/22 11:58:55;;;;;;;;;;;;;;;;;;5493904;26;20375;-56
2024/04/22 12:01:21;;;;;;;;;;;;;;;;;;5493754;25;19940;-58
2024/04/22 12:03:47;;;;;;;;;;;;;;;;;;5500285;26;19928;-56
2024/04/22 12:06:13;;;;;;;;;;;;;;;;;;5512035;25;19943;-58
2024/04/22 12:08:39;;;;;;;;;;;;;;;;;;5501641;26;19935;-59
2024/04/22 12:11:05;;;;;;;;;;;;;;;;;;5490976;25;19939;-59
2024/04/22 12:13:31;;;;;;;;;;;;;;;;;;5492874;26;19935;-59
2024/04/22 12:15:59;;;;;;;;;;;;;;;;;;5497135;25;19963;-59
2024/04/22 12:18:25;;;;;;;;;;;;;;;;;;5501295;26;20581;-58
2024/04/22 12:20:51;;;;;;;;;;;;;;;;;;5506148;25;19976;-59
2024/04/22 12:23:16;;;;;;;;;;;;;;;;;;5497171;26;19959;-58
2024/04/22 12:25:42;;;;;;;;;;;;;;;;;;5506769;26;19934;-58
2024/04/22 12:28:08;;;;;;;;;;;;;;;;;;5494406;25;19942;-58
2024/04/22 12:30:34;;;;;;;;;;;;;;;;;;5501041;25;19928;-58
2024/04/22 12:33:00;;;;;;;;;;;;;;;;;;5504797;25;19998;-57
2024/04/22 12:35:26;;;;;;;;;;;;;;;;;;5503005;26;19928;-58
2024/04/22 12:37:52;;;;;;;;;;;;;;;;;;5508474;25;19936;-58
2024/04/22 12:40:18;;;;;;;;;;;;;;;;;;5500778;25;19928;-58
2024/04/22 12:42:44;;;;;;;;;;;;;;;;;;5514437;26;19935;-59
2024/04/22 12:45:10;;;;;;;;;;;;;;;;;;5503232;25;20276;-60
2024/04/22 12:53:05;;;;;;;;;;;;;;;;;;5511581;25;20488;-62
2024/04/22 12:55:31;;;;;;;;;;;;;;;;;;5512169;25;19927;-61
2024/04/22 12:57:57;;;;;;;;;;;;;;;;;;5493963;25;19928;-61
2024/04/22 13:00:23;;;;;;;;;;;;;;;;;;5533516;25;19942;-62
2024/04/22 13:02:49;;;;;;;;;;;;;;;;;;5519213;25;19936;-63
2024/04/22 13:05:15;;;;;;;;;;;;;;;;;;5502163;25;20343;-63
2024/04/22 13:07:41;;;;;;;;;;;;;;;;;;5508381;25;20400;-61
2024/04/22 13:10:07;;;;;;;;;;;;;;;;;;5503139;25;20002;-62
2024/04/22 13:12:33;;;;;;;;;;;;;;;;;;5503218;25;19940;-62
2024/04/22 13:14:59;;;;;;;;;;;;;;;;;;5521262;25;19935;-62
2024/04/22 13:17:25;;;;;;;;;;;;;;;;;;5512123;26;19953;-61
2024/04/22 13:19:51;;;;;;;;;;;;;;;;;;5522351;25;19939;-62
2024/04/22 13:22:17;;;;;;;;;;;;;;;;;;5515796;25;20361;-61
2024/04/22 13:24:43;;;;;;;;;;;;;;;;;;5520937;25;19928;-62
2024/04/22 13:27:09;;;;;;;;;;;;;;;;;;5496508;25;19936;-61
2024/04/22 13:29:35;;;;;;;;;;;;;;;;;;5505797;26;19936;-61
2024/04/22 13:32:01;;;;;;;;;;;;;;;;;;5527321;25;19932;-61
2024/04/22 13:34:27;;;;;;;;;;;;;;;;;;5524009;25;19949;-61
2024/04/22 13:36:55;;;;;;;;;;;;;;;;;;5513347;25;19928;-61
2024/04/22 13:39:21;;;;;;;;;;;;;;;;;;5517312;26;19927;-60
2024/04/22 13:41:47;;;;;;;;;;;;;;;;;;5519397;25;19928;-60
2024/04/22 13:44:13;;;;;;;;;;;;;;;;;;5504469;26;19946;-61
2024/04/22 13:46:39;;;;;;;;;;;;;;;;;;5512457;25;19932;-62
2024/04/22 13:49:05;;;;;;;;;;;;;;;;;;5499204;26;20337;-61
2024/04/22 13:51:30;;;;;;;;;;;;;;;;;;5520213;26;19935;-63
2024/04/22 13:53:56;;;;;;;;;;;;;;;;;;5515586;26;19935;-62
2024/04/22 13:56:22;;;;;;;;;;;;;;;;;;5487454;26;20011;-62
2024/04/22 13:58:48;;;;;;;;;;;;;;;;;;5518868;25;19927;-62
2024/04/22 14:01:14;;;;;;;;;;;;;;;;;;5487803;25;19928;-61
2024/04/22 14:03:40;;;;;;;;;;;;;;;;;;5499425;26;20011;-60
2024/04/22 14:06:06;;;;;;;;;;;;;;;;;;5516178;25;19996;-63
2024/04/22 14:08:32;;;;;;;;;;;;;;;;;;5496699;25;19943;-61
2024/04/22 14:10:58;;;;;;;;;;;;;;;;;;5497965;26;19928;-62
2024/04/22 14:13:27;;;;;;;;;;;;;;;;;;5495873;25;20371;-61
2024/04/22 14:15:52;;;;;;;;;;;;;;;;;;5525564;25;19955;-61
2024/04/22 14:18:18;;;;;;;;;;;;;;;;;;5526962;25;19934;-62
2024/04/22 14:20:44;;;;;;;;;;;;;;;;;;5514948;26;19939;-62
2024/04/22 14:23:10;;;;;;;;;;;;;;;;;;5519957;26;19995;-62
2024/04/22 14:25:36;;;;;;;;;;;;;;;;;;5522893;25;19998;-63
2024/04/22 14:28:02;;;;;;;;;;;;;;;;;;5501899;25;19936;-62
2024/04/22 14:30:28;;;;;;;;;;;;;;;;;;5518234;25;19928;-62
2024/04/22 14:32:54;;;;;;;;;;;;;;;;;;5509305;26;19946;-60
2024/04/22 14:35:20;;;;;;;;;;;;;;;;;;5513696;25;19927;-60
2024/04/22 14:37:46;;;;;;;;;;;;;;;;;;5512078;25;20359;-60
2024/04/22 14:40:12;;;;;;;;;;;;;;;;;;5513620;25;19939;-62
2024/04/22 14:42:38;;;;;;;;;;;;;;;;;;5493266;26;19936;-62
2024/04/22 14:45:04;;;;;;;;;;;;;;;;;;5503816;25;19947;-62
2024/04/22 14:47:30;;;;;;;;;;;;;;;;;;5517109;25;19999;-62
2024/04/22 14:49:55;;;;;;;;;;;;;;;;;;5495664;26;20313;-63
2024/04/22 14:52:21;;;;;;;;;;;;;;;;;;5501909;25;19939;-61
2024/04/22 14:54:47;;;;;;;;;;;;;;;;;;5498123;25;20251;-63
2024/04/22 14:57:13;;;;;;;;;;;;;;;;;;5496801;25;20434;-63
2024/04/22 14:59:39;;;;;;;;;;;;;;;;;;5495383;26;19996;-63
2024/04/22 15:02:08;;;;;;;;;;;;;;;;;;5517835;25;19942;-64
2024/04/22 15:04:33;;;;;;;;;;;;;;;;;;5506466;25;19947;-65
2024/04/22 15:07:00;;;;;;;;;;;;;;;;;;5501801;26;20002;-65
2024/04/22 15:09:29;;;;;;;;;;;;;;;;;;5509011;26;20545;-65
2024/04/22 15:11:55;;;;;;;;;;;;;;;;;;5516903;25;19936;-63
2024/04/22 15:14:21;;;;;;;;;;;;;;;;;;5507525;25;20353;-63
2024/04/22 15:16:47;;;;;;;;;;;;;;;;;;5498348;25;20367;-60
2024/04/22 15:19:13;;;;;;;;;;;;;;;;;;5494508;26;20359;-60
2024/04/22 15:21:39;;;;;;;;;;;;;;;;;;5502672;25;19936;-63
2024/04/22 15:24:05;;;;;;;;;;;;;;;;;;5499421;26;20371;-60
2024/04/22 15:26:31;;;;;;;;;;;;;;;;;;5499826;25;19928;-60
2024/04/22 15:28:57;;;;;;;;;;;;;;;;;;5500013;25;19940;-60
2024/04/22 15:31:23;;;;;;;;;;;;;;;;;;5501841;25;19939;-59
2024/04/22 15:33:49;;;;;;;;;;;;;;;;;;5495972;26;19960;-59
2024/04/22 15:36:16;;;;;;;;;;;;;;;;;;5497417;26;19936;-64
2024/04/22 15:38:42;;;;;;;;;;;;;;;;;;5494390;26;19945;-64
2024/04/22 15:41:08;;;;;;;;;;;;;;;;;;5493428;25;20015;-63
2024/04/22 15:43:41;;;;;;;;;;;;;;;;;;5495347;26;20374;-65
2024/04/22 15:46:07;;;;;;;;;;;;;;;;;;5492649;25;20024;-65
2024/04/22 15:48:33;;;;;;;;;;;;;;;;;;5496442;26;20375;-65
2024/04/22 15:50:59;;;;;;;;;;;;;;;;;;5495891;25;20359;-63
2024/04/22 15:53:25;;;;;;;;;;;;;;;;;;5500983;26;19935;-65
2024/04/22 15:55:51;;;;;;;;;;;;;;;;;;5494625;25;19935;-64
2024/04/22 15:58:17;;;;;;;;;;;;;;;;;;5497757;26;19936;-65
2024/04/22 16:00:43;;;;;;;;;;;;;;;;;;5501365;25;19928;-65
2024/04/22 16:03:09;;;;;;;;;;;;;;;;;;5500543;26;20016;-63
2024/04/22 16:05:35;;;;;;;;;;;;;;;;;;5498612;25;19935;-62
2024/04/22 16:08:01;;;;;;;;;;;;;;;;;;5500639;25;19947;-63
2024/04/22 16:10:27;;;;;;;;;;;;;;;;;;5499815;25;19935;-62
2024/04/22 16:12:52;;;;;;;;;;;;;;;;;;5500860;25;19928;-60
2024/04/22 16:15:18;;;;;;;;;;;;;;;;;;5501742;25;19955;-59
2024/04/22 16:17:44;;;;;;;;;;;;;;;;;;5497182;26;21430;-59
2024/04/22 16:20:10;;;;;;;;;;;;;;;;;;5499634;26;19928;-61
2024/04/22 16:22:36;;;;;;;;;;;;;;;;;;5502005;26;19947;-63
2024/04/22 16:25:02;;;;;;;;;;;;;;;;;;5505297;25;20382;-60
2024/04/22 16:27:28;;;;;;;;;;;;;;;;;;5492153;26;19935;-60
2024/04/22 16:29:54;;;;;;;;;;;;;;;;;;5503155;25;20011;-58
2024/04/22 16:32:20;;;;;;;;;;;;;;;;;;5493810;26;19935;-60
2024/04/22 16:34:46;;;;;;;;;;;;;;;;;;5497436;25;19942;-63
2024/04/22 16:37:12;;;;;;;;;;;;;;;;;;5493846;26;19931;-58
2024/04/22 16:39:38;;;;;;;;;;;;;;;;;;5502093;25;19931;-59
2024/04/22 16:42:04;;;;;;;;;;;;;;;;;;5495057;26;20255;-58
2024/04/22 16:44:30;;;;;;;;;;;;;;;;;;5495502;26;19935;-58
2024/04/22 16:46:58;;;;;;;;;;;;;;;;;;5507227;25;20411;-57
2024/04/22 16:49:26;;;;;;;;;;;;;;;;;;5500270;26;20377;-58
2024/04/22 16:51:52;;;;;;;;;;;;;;;;;;5506244;26;19928;-61